Time;durP1;ratioP1;P1;durP2;ratioP2;P2;SDS_P1;SDS_P2;PMS_P1;PMS_P2;Temp;Humidity;BMP_temperature;BMP_pressure;BME280_temperature;BME280_humidity;BME280_pressure;Samples;Min_cycle;Max_cycle;Signal;HPM_P1;HPM_P2
2021/04/22 00:00:37;;;;;;;12.77;8.07;;;;;;;;;;4838283;29;20026;-69
2021/04/22 00:03:03;;;;;;;9.77;7.65;;;;;;;;;;4839259;29;20022;-64
2021/04/22 00:05:34;;;;;;;12.27;9.02;;;;;;;;;;4838333;29;20041;-60
2021/04/22 00:08:00;;;;;;;9.32;7.70;;;;;;;;;;4835833;29;20030;-60
2021/04/22 00:10:28;;;;;;;9.85;8.13;;;;;;;;;;4838152;29;20030;-64
2021/04/22 00:12:55;;;;;;;12.00;8.60;;;;;;;;;;4836943;29;20031;-63
2021/04/22 00:15:24;;;;;;;10.00;7.72;;;;;;;;;;4837846;29;20030;-65
2021/04/22 00:17:52;;;;;;;9.57;7.78;;;;;;;;;;4837235;29;20035;-61
2021/04/22 00:20:18;;;;;;;11.57;8.30;;;;;;;;;;4837458;29;20091;-60
2021/04/22 00:22:44;;;;;;;11.85;8.60;;;;;;;;;;4836911;29;20038;-61
2021/04/22 00:25:11;;;;;;;10.52;8.60;;;;;;;;;;4837123;29;20030;-61
2021/04/22 00:27:37;;;;;;;14.25;8.82;;;;;;;;;;4837221;29;20027;-61
2021/04/22 00:30:05;;;;;;;9.90;8.20;;;;;;;;;;4836510;29;20055;-65
2021/04/22 00:32:31;;;;;;;10.40;8.50;;;;;;;;;;4838485;29;20053;-63
2021/04/22 00:34:57;;;;;;;10.75;8.48;;;;;;;;;;4839959;29;20030;-63
2021/04/22 00:37:23;;;;;;;11.10;8.27;;;;;;;;;;4846606;29;20070;-65
2021/04/22 00:39:49;;;;;;;12.30;7.47;;;;;;;;;;4834665;29;20030;-61
2021/04/22 00:42:15;;;;;;;10.55;7.35;;;;;;;;;;4830616;29;20045;-63
2021/04/22 00:44:41;;;;;;;8.13;6.50;;;;;;;;;;4831946;29;20031;-60
2021/04/22 00:47:08;;;;;;;10.55;7.05;;;332.90;2329.60;;;;;;4831798;29;20090;-60
2021/04/22 00:49:34;;;;;;;9.15;6.53;;;332.80;2022.40;;;;;;4835663;29;20031;-62
2021/04/22 00:52:00;;;;;;;10.50;6.45;;;332.80;1996.80;;;;;;4837266;29;20049;-69
2021/04/22 00:54:26;;;;;;;9.23;6.32;;;332.80;1996.80;;;;;;4837448;29;20027;-62
2021/04/22 00:56:51;;;;;;;7.10;5.65;;;332.80;2022.40;;;;;;4837845;29;20057;-60
2021/04/22 00:59:17;;;;;;;9.18;6.25;;;332.80;2022.40;;;;;;4835318;29;20019;-62
2021/04/22 01:01:43;;;;;;;7.82;5.72;;;308.10;2022.40;;;;;;4837917;29;20030;-61
2021/04/22 01:04:09;;;;;;;9.63;6.20;;;308.10;2022.40;;;;;;4837180;29;20589;-61
2021/04/22 01:06:35;;;;;;;9.02;5.72;;;308.10;2022.40;;;;;;4836992;29;20030;-62
2021/04/22 01:09:04;;;;;;;7.75;5.60;;;308.10;2048.00;;;;;;4836966;29;20069;-66
2021/04/22 01:11:30;;;;;;;8.27;5.47;;;308.00;2048.00;;;;;;4820590;29;20435;-63
2021/04/22 01:13:57;;;;;;;7.53;5.45;;;308.00;2048.00;;;;;;4837010;29;20031;-65
2021/04/22 01:16:23;;;;;;;6.55;4.80;;;308.00;2048.00;;;;;;4832079;29;20038;-62
2021/04/22 01:18:49;;;;;;;7.13;5.28;;;307.90;2073.60;;;;;;4836813;29;20045;-62
2021/04/22 01:21:27;;;;;;;6.07;4.70;;;307.90;2099.20;;;;;;4835332;29;20037;-61
2021/04/22 01:23:54;;;;;;;7.18;5.10;;;307.90;2099.20;;;;;;4832664;29;20058;-69
2021/04/22 01:26:22;;;;;;;5.93;4.85;;;307.90;2099.20;;;;;;4836273;29;20121;-61
2021/04/22 01:28:48;;;;;;;7.82;5.18;;;307.80;2124.80;;;;;;4837570;29;20030;-61
2021/04/22 01:31:14;;;;;;;6.22;4.68;;;307.80;2124.80;;;;;;4838475;29;20520;-65
2021/04/22 01:33:40;;;;;;;6.38;4.65;;;307.80;2124.80;;;;;;4836802;29;20486;-68
2021/04/22 01:36:07;;;;;;;7.45;4.72;;;307.70;2124.80;;;;;;4835408;29;20099;-62
2021/04/22 01:38:33;;;;;;;6.80;4.78;;;307.70;2124.80;;;;;;4835460;29;20393;-64
2021/04/22 01:41:00;;;;;;;5.97;4.35;;;307.70;2124.80;;;;;;4835184;29;20037;-66
2021/04/22 01:43:26;;;;;;;8.38;4.80;;;307.70;2124.80;;;;;;4836396;29;20027;-66
2021/04/22 01:45:52;;;;;;;6.20;4.53;;;307.70;2124.80;;;;;;4835236;29;20054;-63
2021/04/22 01:48:18;;;;;;;6.22;4.63;;;307.70;2150.40;;;;;;4833439;29;20027;-64
2021/04/22 01:50:44;;;;;;;7.43;4.47;;;307.60;2150.40;;;;;;4836090;29;20030;-67
2021/04/22 01:53:10;;;;;;;7.20;5.07;;;307.60;2150.40;;;;;;4837415;29;20456;-67
2021/04/22 01:55:42;;;;;;;6.07;4.70;;;307.60;2150.40;;;;;;4835986;29;20043;-63
2021/04/22 01:58:14;;;;;;;7.20;4.32;;;307.60;2176.00;;;;;;4818526;29;20078;-64
2021/04/22 02:00:45;;;;;;;5.63;4.40;;;307.50;2176.00;;;;;;4834762;29;20030;-63
2021/04/22 02:03:12;;;;;;;6.82;4.20;;;307.50;2176.00;;;;;;4833280;29;20034;-67
2021/04/22 02:05:39;;;;;;;5.85;4.80;;;307.60;2176.00;;;;;;4818145;29;20023;-67
2021/04/22 02:08:06;;;;;;;5.78;4.10;;;307.50;2176.00;;;;;;4834107;29;20060;-62
2021/04/22 02:10:32;;;;;;;6.18;4.63;;;307.50;2201.60;;;;;;4834498;29;20095;-63
2021/04/22 02:12:58;;;;;;;6.80;4.38;;;307.50;2201.60;;;;;;4834103;29;20038;-63
2021/04/22 02:15:26;;;;;;;8.27;4.20;;;;;;;;;;4834168;29;20095;-63
2021/04/22 02:17:52;;;;;;;6.45;4.13;;;;;;;;;;4835092;29;20134;-60
2021/04/22 02:20:19;;;;;;;6.88;4.25;;;;;;;;;;4835801;29;20026;-63
2021/04/22 02:22:45;;;;;;;5.85;4.20;;;;;;;;;;4835395;29;20042;-63
2021/04/22 02:25:12;;;;;;;6.05;4.30;;;;;;;;;;4834133;29;20023;-60
2021/04/22 02:27:39;;;;;;;5.35;4.10;;;;;;;;;;4836021;29;20031;-66
2021/04/22 02:30:10;;;;;;;6.07;4.05;;;;;;;;;;4832101;29;20042;-61
2021/04/22 02:32:36;;;;;;;5.45;3.95;;;;;;;;;;4835389;29;20026;-63
2021/04/22 02:35:03;;;;;;;5.32;3.90;;;;;;;;;;4834300;29;20032;-65
2021/04/22 02:37:31;;;;;;;6.70;3.72;;;;;;;;;;4834333;29;20050;-63
2021/04/22 02:39:58;;;;;;;5.85;3.97;;;;;;;;;;4836730;29;20094;-65
2021/04/22 02:42:24;;;;;;;12.32;4.22;;;;;;;;;;4835122;29;20030;-64
2021/04/22 02:44:50;;;;;;;5.70;3.97;;;;;;;;;;4834487;29;20054;-61
2021/04/22 02:47:18;;;;;;;4.68;3.85;;;;;;;;;;4834627;29;20191;-62
2021/04/22 02:49:44;;;;;;;5.45;3.92;;;;;;;;;;4834971;29;20035;-62
2021/04/22 02:52:10;;;;;;;5.55;4.13;;;;;;;;;;4834344;29;20069;-63
2021/04/22 02:54:36;;;;;;;7.03;4.50;;;;;;;;;;4819272;29;20405;-61
2021/04/22 02:57:02;;;;;;;5.30;4.10;;;;;;;;;;4838023;29;20078;-61
2021/04/22 02:59:28;;;;;;;6.40;3.95;;;;;;;;;;4835353;29;20030;-60
2021/04/22 03:01:57;;;;;;;5.28;3.97;;;;;;;;;;4833824;29;20061;-63
2021/04/22 03:04:23;;;;;;;5.55;3.78;;;;;;;;;;4835259;29;20057;-60
2021/04/22 03:06:49;;;;;;;5.85;4.00;;;;;;;;;;4834393;29;20054;-66
2021/04/22 03:09:15;;;;;;;8.27;4.28;;;;;;;;;;4833830;29;20058;-64
2021/04/22 03:11:41;;;;;;;4.90;3.50;;;;;;;;;;4834955;29;20038;-63
2021/04/22 03:14:07;;;;;;;5.30;4.00;;;;;;;;;;4837255;29;20204;-62
2021/04/22 03:16:33;;;;;;;5.57;3.80;;;;;;;;;;4836804;29;20091;-60
2021/04/22 03:18:59;;;;;;;4.88;3.65;;;;;;;;;;4841394;29;20090;-62
2021/04/22 03:21:25;;;;;;;9.20;4.35;;;307.50;2150.40;;;;;;4836503;29;20030;-60
2021/04/22 03:23:51;;;;;;;10.98;4.20;;;307.40;2150.40;;;;;;4836562;29;20038;-62
2021/04/22 03:26:16;;;;;;;9.50;4.43;;;307.40;2150.40;;;;;;4837927;29;20026;-60
2021/04/22 03:28:42;;;;;;;7.53;3.70;;;307.40;2150.40;;;;;;4835386;29;20046;-61
2021/04/22 03:31:08;;;;;;;12.35;3.70;;;307.50;2124.80;;;;;;4822344;29;20050;-64
2021/04/22 03:33:34;;;;;;;9.60;3.63;;;307.40;2150.40;;;;;;4835800;29;20063;-64
2021/04/22 03:35:59;;;;;;;8.25;3.47;;;307.40;2150.40;;;;;;4835386;29;20044;-60
2021/04/22 03:38:25;;;;;;;7.28;4.18;;;307.40;2124.80;;;;;;4837755;29;20061;-61
2021/04/22 03:40:51;;;;;;;8.82;3.42;;;308.10;2124.80;;;;;;4841447;29;20030;-65
2021/04/22 03:43:16;;;;;;;4.60;3.22;;;307.40;2124.80;;;;;;4837942;29;20034;-65
2021/04/22 03:45:42;;;;;;;6.63;3.65;;;307.40;2124.80;;;;;;4838745;29;20061;-70
2021/04/22 03:48:08;;;;;;;9.13;3.47;;;307.40;2124.80;;;;;;4837904;29;20037;-61
2021/04/22 03:50:33;;;;;;;7.93;3.33;;;307.40;2124.80;;;;;;4834849;29;20501;-64
2021/04/22 03:52:59;;;;;;;4.35;3.00;;;307.30;2124.80;;;;;;4832956;29;20072;-61
2021/04/22 03:55:25;;;;;;;5.88;3.20;;;307.40;2099.20;;;;;;4834791;29;20040;-63
2021/04/22 03:57:51;;;;;;;8.60;3.17;;;307.30;2099.20;;;;;;4840285;29;20042;-69
2021/04/22 04:00:21;;;;;;;11.00;3.33;;;307.40;2099.20;;;;;;4830392;29;20037;-64
2021/04/22 04:02:46;;;;;;;5.63;3.17;;;307.40;2099.20;;;;;;4834947;29;20034;-65
2021/04/22 04:05:13;;;;;;;6.05;3.22;;;307.40;2099.20;;;;;;4833726;29;20074;-60
2021/04/22 04:07:38;;;;;;;7.00;3.65;;;307.30;2099.20;;;;;;4832924;29;20034;-62
2021/04/22 04:10:06;;;;;;;7.15;3.50;;;307.40;2099.20;;;;;;4836596;29;20193;-63
2021/04/22 04:12:32;;;;;;;5.60;3.47;;;307.40;2124.80;;;;;;4848075;29;20038;-60
2021/04/22 04:14:58;;;;;;;7.13;3.83;;;307.50;2124.80;;;;;;4839187;29;20037;-60
2021/04/22 04:17:24;;;;;;;5.97;3.40;;;307.50;2124.80;;;;;;4839676;29;20034;-64
2021/04/22 04:19:50;;;;;;;6.30;3.38;;;307.50;2099.20;;;;;;4840276;29;20047;-60
2021/04/22 04:22:16;;;;;;;9.75;3.63;;;307.40;2099.20;;;;;;4838139;29;20130;-67
2021/04/22 04:24:41;;;;;;;7.65;3.50;;;307.40;2124.80;;;;;;4838919;29;20034;-60
2021/04/22 04:27:08;;;;;;;9.00;3.80;;;307.50;2124.80;;;;;;4839967;29;20037;-60
2021/04/22 04:29:33;;;;;;;10.70;3.90;;;307.50;2124.80;;;;;;4839421;29;20078;-60
2021/04/22 04:31:59;;;;;;;8.32;4.07;;;307.50;2124.80;;;;;;4839494;29;20034;-63
2021/04/22 04:34:25;;;;;;;9.85;3.60;;;307.50;2099.20;;;;;;4839939;29;20035;-60
2021/04/22 04:36:51;;;;;;;11.65;4.30;;;307.50;2124.80;;;;;;4839717;29;20106;-63
2021/04/22 04:39:17;;;;;;;12.20;4.50;;;307.50;2099.20;;;;;;4838878;29;20023;-59
2021/04/22 04:41:43;;;;;;;12.90;4.78;;;307.50;2099.20;;;;;;4829334;29;20121;-66
2021/04/22 04:44:09;;;;;;;17.63;4.85;;;307.50;2099.20;;;;;;4828036;29;20035;-63
2021/04/22 04:46:36;;;;;;;9.68;4.00;;;307.50;2099.20;;;;;;4829811;29;20046;-60
2021/04/22 04:49:03;;;;;;;10.00;5.63;;;307.60;2099.20;;;;;;4830023;29;20395;-72
2021/04/22 04:51:32;;;;;;;10.63;6.60;;;307.70;2099.20;;;;;;4815612;29;20109;-68
2021/04/22 04:53:58;;;;;;;16.65;7.20;;;307.80;2099.20;;;;;;4819623;29;20093;-66
2021/04/22 04:56:23;;;;;;;18.23;6.35;;;307.90;2073.60;;;;;;4817612;29;20079;-68
2021/04/22 04:58:50;;;;;;;12.63;5.88;;;308.00;2073.60;;;;;;4815287;29;20107;-67
2021/04/22 05:01:16;;;;;;;14.23;5.75;;;332.80;2099.20;;;;;;4808357;29;20035;-68
2021/04/22 05:03:42;;;;;;;12.65;4.93;;;332.90;2048.00;;;;;;4820777;29;20105;-72
2021/04/22 05:06:08;;;;;;;13.38;4.95;;;333.00;2048.00;;;;;;4824310;29;20533;-71
2021/04/22 05:08:34;;;;;;;13.88;4.88;;;333.20;2022.40;;;;;;4825331;29;20042;-64
2021/04/22 05:11:00;;;;;;;15.60;4.97;;;333.40;2022.40;;;;;;4834630;29;20039;-62
2021/04/22 05:13:27;;;;;;;19.25;5.10;;;333.70;1996.80;;;;;;4842123;29;20038;-59
2021/04/22 05:15:53;;;;;;;12.30;4.75;;;358.50;1971.20;;;;;;4833155;29;20109;-63
2021/04/22 05:18:19;;;;;;;9.68;3.92;;;;;;;;;;4829648;29;20035;-72
2021/04/22 05:20:50;;;;;;;9.85;3.70;;;;;;;;;;4831693;29;20019;-74
2021/04/22 05:23:19;;;;;;;12.37;5.20;;;;;;;;;;4867985;29;20014;-65
2021/04/22 05:25:52;;;;;;;8.98;4.20;;;;;;;;;;4854677;29;20337;-65
2021/04/22 05:28:18;;;;;;;7.80;3.90;;;;;;;;;;4849189;29;20025;-60
2021/04/22 05:30:45;;;;;;;15.07;7.88;;;;;;;;;;4848464;29;20019;-61
2021/04/22 05:33:11;;;;;;;24.23;13.15;;;;;;;;;;4849877;29;20026;-61
2021/04/22 05:35:37;;;;;;;17.98;10.65;;;;;;;;;;4848011;29;20038;-62
2021/04/22 05:38:03;;;;;;;24.00;13.73;;;;;;;;;;4848720;29;20029;-61
2021/04/22 05:40:29;;;;;;;52.60;33.22;;;;;;;;;;4848927;29;20058;-60
2021/04/22 05:42:56;;;;;;;24.92;17.90;;;;;;;;;;4848911;29;20033;-61
2021/04/22 05:45:22;;;;;;;18.85;13.65;;;;;;;;;;4846935;29;20027;-61
2021/04/22 05:47:48;;;;;;;15.73;10.07;;;;;;;;;;4842147;29;20011;-60
2021/04/22 05:50:15;;;;;;;12.38;7.18;;;;;;;;;;4843959;29;20573;-62
2021/04/22 05:52:41;;;;;;;12.20;7.03;;;;;;;;;;4844568;29;20035;-72
2021/04/22 05:55:08;;;;;;;9.70;5.38;;;;;;;;;;4843463;29;20047;-63
2021/04/22 05:57:35;;;;;;;13.00;4.63;;;;;;;;;;4828113;29;20056;-77
2021/04/22 06:00:01;;;;;;;11.10;4.57;;;;;;;;;;4844516;29;20039;-69
2021/04/22 06:02:27;;;;;;;11.73;4.15;;;;;;;;;;4840559;29;20026;-62
2021/04/22 06:04:53;;;;;;;8.48;4.07;;;;;;;;;;4831884;29;20034;-73
2021/04/22 06:07:19;;;;;;;11.50;4.72;;;;;;;;;;4821914;29;20041;-73
2021/04/22 06:09:45;;;;;;;12.38;4.97;;;;;;;;;;4824537;29;20030;-76
2021/04/22 06:12:11;;;;;;;11.13;5.70;;;;;;;;;;4824915;29;20026;-77
2021/04/22 06:14:37;;;;;;;8.40;4.60;;;;;;;;;;4844657;29;20090;-71
2021/04/22 06:17:03;;;;;;;7.03;3.55;;;;;;;;;;4837524;29;20054;-74
2021/04/22 06:19:29;;;;;;;7.22;3.38;;;;;;;;;;4834112;29;20041;-77
2021/04/22 06:21:55;;;;;;;7.00;3.28;;;;;;;;;;4821519;29;20031;-73
2021/04/22 06:24:21;;;;;;;6.53;3.72;;;;;;;;;;4832915;29;20034;-64
2021/04/22 06:26:48;;;;;;;8.63;4.18;;;;;;;;;;4843451;29;20038;-65
2021/04/22 06:29:16;;;;;;;9.20;3.80;;;;;;;;;;4832356;29;20039;-65
2021/04/22 06:31:44;;;;;;;6.90;3.13;;;;;;;;;;4833739;29;20010;-65
2021/04/22 06:34:10;;;;;;;5.20;3.17;;;;;;;;;;4832308;29;20094;-66
2021/04/22 06:36:36;;;;;;;6.70;3.30;;;;;;;;;;4817401;29;20049;-72
2021/04/22 06:39:08;;;;;;;9.60;3.20;;;;;;;;;;4828910;29;20034;-76
2021/04/22 06:41:41;;;;;;;5.22;3.13;;;;;;;;;;4810873;29;20034;-74
2021/04/22 06:44:07;;;;;;;5.70;2.90;;;;;;;;;;4823338;29;20042;-79
2021/04/22 06:46:37;;;;;;;5.68;3.00;;;;;;;;;;4833079;29;20070;-68
2021/04/22 06:49:04;;;;;;;5.10;2.80;;;;;;;;;;4838432;29;20082;-72
2021/04/22 06:51:30;;;;;;;5.05;2.58;;;;;;;;;;4835933;29;20069;-68
2021/04/22 06:53:56;;;;;;;3.95;2.63;;;;;;;;;;4838890;29;20010;-66
2021/04/22 06:56:22;;;;;;;6.47;3.40;;;;;;;;;;4835408;29;20035;-69
2021/04/22 06:58:49;;;;;;;5.20;2.70;;;;;;;;;;4828716;29;20037;-74
2021/04/22 07:01:15;;;;;;;9.82;6.05;;;;;;;;;;4845973;29;20034;-82
2021/04/22 07:03:41;;;;;;;4.63;3.30;;;;;;;;;;4843067;29;20038;-62
2021/04/22 07:06:07;;;;;;;3.65;2.78;;;;;;;;;;4848549;29;20034;-61
2021/04/22 07:08:36;;;;;;;3.45;2.42;;;;;;;;;;4828714;29;20113;-79
2021/04/22 07:11:02;;;;;;;3.55;2.25;;;;;;;;;;4814940;29;20390;-79
2021/04/22 07:13:28;;;;;;;6.28;2.40;;;;;;;;;;4821874;29;20030;-77
2021/04/22 07:15:55;;;;;;;3.90;2.30;;;;;;;;;;4820001;29;20050;-73
2021/04/22 07:18:22;;;;;;;5.07;2.60;;;;;;;;;;4829252;29;20493;-82
2021/04/22 07:20:48;;;;;;;5.95;2.60;;;;;;;;;;4834371;29;20038;-81
2021/04/22 07:23:15;;;;;;;7.00;2.50;;;;;;;;;;4823232;29;20081;-64
2021/04/22 07:25:41;;;;;;;6.10;2.42;;;;;;;;;;4822273;29;20034;-72
2021/04/22 07:28:09;;;;;;;2.47;2.20;;;;;;;;;;4826772;29;20038;-79
2021/04/22 07:30:36;;;;;;;4.00;2.60;;;;;;;;;;4830088;29;20026;-77
2021/04/22 07:33:02;;;;;;;4.50;2.60;;;;;;;;;;4825836;29;20034;-65
2021/04/22 07:35:28;;;;;;;7.93;2.95;;;;;;;;;;4839632;29;20030;-65
2021/04/22 07:37:57;;;;;;;4.80;2.70;;;;;;;;;;4841571;29;20039;-65
2021/04/22 07:40:24;;;;;;;7.55;2.53;;;;;;;;;;4837893;29;20105;-65
2021/04/22 07:42:50;;;;;;;5.82;2.60;;;;;;;;;;4835817;29;20038;-78
2021/04/22 07:45:18;;;;;;;8.77;2.75;;;;;;;;;;4827381;29;20047;-70
2021/04/22 07:47:44;;;;;;;5.82;2.70;;;;;;;;;;4824190;29;20599;-83
2021/04/22 07:50:12;;;;;;;4.65;2.70;;;;;;;;;;4822487;29;20393;-76
2021/04/22 07:52:38;;;;;;;5.80;2.60;;;;;;;;;;4833194;29;20031;-79
2021/04/22 07:55:07;;;;;;;6.40;2.38;;;;;;;;;;4838391;29;20032;-69
2021/04/22 07:57:35;;;;;;;6.55;2.60;;;;;;;;;;4825982;29;20046;-72
2021/04/22 08:00:01;;;;;;;5.35;2.70;;;;;;;;;;4825200;29;20026;-76
2021/04/22 08:02:27;;;;;;;4.50;2.55;;;;;;;;;;4820990;29;20042;-72
2021/04/22 08:04:53;;;;;;;4.35;2.53;;;;;;;;;;4823762;29;20445;-75
2021/04/22 08:07:19;;;;;;;6.45;2.70;;;;;;;;;;4828843;29;20069;-60
2021/04/22 08:09:45;;;;;;;6.28;3.25;;;;;;;;;;4821275;29;20030;-70
2021/04/22 08:12:13;;;;;;;7.50;2.90;;;;;;;;;;4828574;29;20038;-69
2021/04/22 08:14:39;;;;;;;6.30;3.40;;;;;;;;;;4827108;29;20034;-74
2021/04/22 08:17:05;;;;;;;5.18;3.10;;;;;;;;;;4819201;29;20042;-75
2021/04/22 08:19:33;;;;;;;5.38;2.80;;;;;;;;;;4824297;29;20030;-74
2021/04/22 08:21:59;;;;;;;11.68;6.85;;;;;;;;;;4825510;29;20061;-74
2021/04/22 08:24:26;;;;;;;6.25;4.47;;;;;;;;;;4820842;29;20098;-73
2021/04/22 08:26:52;;;;;;;6.65;4.45;;;;;;;;;;4819633;29;20065;-72
2021/04/22 08:29:18;;;;;;;10.27;3.78;;;;;;;;;;4820817;29;20041;-70
2021/04/22 08:31:44;;;;;;;11.88;6.18;;;;;;;;;;4813910;29;20549;-70
2021/04/22 08:34:10;;;;;;;6.78;4.88;;;;;;;;;;4819659;29;20030;-75
2021/04/22 08:36:36;;;;;;;7.72;4.35;;;;;;;;;;4832113;29;20030;-68
2021/04/22 08:39:04;;;;;;;7.68;3.38;;;;;;;;;;4833004;29;20108;-70
2021/04/22 08:41:31;;;;;;;9.07;5.28;;;;;;;;;;4831414;29;20026;-68
2021/04/22 08:44:00;;;;;;;11.73;6.75;;;;;;;;;;4842252;29;20022;-66
2021/04/22 08:46:29;;;;;;;9.63;5.15;;;;;;;;;;4840011;29;20070;-65
2021/04/22 08:48:55;;;;;;;9.15;5.70;;;;;;;;;;4828799;29;20136;-73
2021/04/22 08:51:23;;;;;;;12.88;6.15;;;;;;;;;;4819759;29;20075;-72
2021/04/22 08:53:50;;;;;;;7.03;4.07;;;;;;;;;;4828173;29;20146;-64
2021/04/22 08:56:19;;;;;;;17.88;9.65;;;;;;;;;;4824159;29;20073;-71
2021/04/22 08:58:46;;;;;;;16.05;8.70;;;;;;;;;;4826690;29;20026;-76
2021/04/22 09:01:16;;;;;;;8.93;5.63;;;;;;;;;;4820551;29;20089;-73
2021/04/22 09:03:44;;;;;;;7.82;3.70;;;;;;;;;;4832870;29;20061;-73
2021/04/22 09:06:10;;;;;;;7.97;4.45;;;;;;;;;;4827562;29;20619;-72
2021/04/22 09:08:44;;;;;;;9.18;5.20;;;;;;;;;;4830119;29;20105;-72
2021/04/22 09:11:10;;;;;;;7.57;4.47;;;;;;;;;;4834189;29;20023;-70
2021/04/22 09:13:37;;;;;;;13.10;7.72;;;;;;;;;;4832095;29;20094;-76
2021/04/22 09:16:05;;;;;;;10.00;5.70;;;;;;;;;;4828165;29;20026;-76
2021/04/22 09:18:37;;;;;;;6.78;3.20;;;;;;;;;;4824425;29;20069;-75
2021/04/22 09:21:03;;;;;;;5.10;2.90;;;;;;;;;;4839462;29;20033;-73
2021/04/22 09:23:29;;;;;;;7.55;4.72;;;;;;;;;;4832927;29;20046;-72
2021/04/22 09:25:56;;;;;;;8.63;4.75;;;;;;;;;;4824839;29;20026;-74
2021/04/22 09:28:22;;;;;;;8.88;4.60;;;;;;;;;;4814332;29;20034;-73
2021/04/22 09:30:48;;;;;;;5.00;3.25;;;;;;;;;;4822717;29;20460;-75
2021/04/22 09:33:24;;;;;;;8.75;5.80;;;;;;;;;;4821558;29;20026;-75
2021/04/22 09:35:51;;;;;;;8.77;3.90;;;;;;;;;;4818328;29;20027;-73
2021/04/22 09:38:18;;;;;;;9.23;4.75;;;;;;;;;;4814244;29;20057;-73
2021/04/22 09:40:45;;;;;;;13.80;7.20;;;;;;;;;;4820383;29;20034;-73
2021/04/22 09:43:15;;;;;;;6.40;3.50;;;;;;;;;;4813077;29;20037;-73
2021/04/22 09:45:43;;;;;;;14.57;8.77;;;;;;;;;;4827749;29;20055;-71
2021/04/22 09:48:30;;;;;;;9.90;4.25;;;;;;;;;;4817823;29;20036;-77
2021/04/22 09:50:57;;;;;;;7.45;3.83;;;;;;;;;;4815200;29;20039;-78
2021/04/22 09:53:25;;;;;;;5.85;3.38;;;;;;;;;;4819443;29;20031;-74
2021/04/22 09:55:53;;;;;;;11.02;6.05;;;;;;;;;;4830111;29;20041;-73
2021/04/22 09:58:30;;;;;;;15.52;8.77;;;;;;;;;;4814549;29;20378;-73
2021/04/22 10:00:56;;;;;;;5.53;3.20;;;;;;;;;;4816253;29;20034;-69
2021/04/22 10:03:23;;;;;;;7.88;3.70;;;;;;;;;;4833516;29;20042;-66
2021/04/22 10:06:00;;;;;;;11.88;7.90;;;;;;;;;;4839051;29;20030;-61
2021/04/22 10:08:27;;;;;;;19.92;12.43;;;;;;;;;;4841979;29;20038;-61
2021/04/22 10:10:59;;;;;;;9.60;6.03;;;;;;;;;;4841135;29;20034;-61
2021/04/22 10:13:25;;;;;;;11.98;7.82;;;;;;;;;;4840727;29;20031;-70
2021/04/22 10:15:56;;;;;;;8.48;5.20;;;;;;;;;;4822710;29;20035;-73
2021/04/22 10:18:22;;;;;;;8.75;4.57;;;;;;;;;;4824868;29;20178;-74
2021/04/22 10:20:50;;;;;;;7.15;4.35;;;;;;;;;;4821144;29;20572;-73
2021/04/22 10:23:16;;;;;;;8.10;5.88;;;;;;;;;;4812102;29;20022;-74
2021/04/22 10:25:44;;;;;;;5.43;4.07;;;;;;;;;;4817704;29;20030;-72
2021/04/22 10:28:11;;;;;;;6.88;4.78;;;;;;;;;;4820077;29;20478;-71
2021/04/22 10:30:38;;;;;;;31.55;16.88;;;;;;;;;;4811728;29;20445;-71
2021/04/22 10:33:05;;;;;;;6.30;3.53;;;;;;;;;;4811424;29;20031;-67
2021/04/22 10:35:32;;;;;;;16.40;9.07;;;;;;;;;;4830619;29;20047;-62
2021/04/22 10:37:59;;;;;;;16.33;10.13;;;;;;;;;;4841604;29;20038;-62
2021/04/22 10:40:28;;;;;;;9.63;4.55;;;;;;;;;;4836341;29;20050;-62
2021/04/22 10:42:55;;;;;;;7.82;5.32;;;;;;;;;;4834487;29;20038;-70
2021/04/22 10:45:21;;;;;;;10.77;6.32;;;;;;;;;;4821458;29;20050;-70
2021/04/22 10:47:48;;;;;;;8.75;4.15;;;;;;;;;;4819930;29;20516;-73
2021/04/22 10:50:16;;;;;;;16.30;5.97;;;;;;;;;;4811576;29;20125;-71
2021/04/22 10:52:43;;;;;;;7.22;5.05;;;;;;;;;;4835735;29;20019;-64
2021/04/22 10:55:27;;;;;;;5.75;4.25;;;;;;;;;;4848142;29;20027;-62
2021/04/22 10:57:54;;;;;;;5.65;3.38;;;;;;;;;;4823357;29;20047;-77
2021/04/22 11:00:23;;;;;;;5.97;3.05;;;;;;;;;;4832967;29;20030;-67
2021/04/22 11:02:51;;;;;;;7.38;4.15;;;;;;;;;;4825875;29;20026;-77
2021/04/22 11:05:27;;;;;;;9.02;5.03;;;;;;;;;;4825248;29;20668;-72
2021/04/22 11:07:56;;;;;;;6.70;3.13;;;;;;;;;;4818281;29;20489;-68
2021/04/22 11:10:23;;;;;;;7.25;3.40;;;;;;;;;;4835614;29;20039;-69
2021/04/22 11:12:49;;;;;;;5.28;3.67;;;;;;;;;;4841562;29;20090;-64
2021/04/22 11:15:19;;;;;;;5.75;3.50;;;;;;;;;;4843745;29;20030;-74
2021/04/22 11:17:46;;;;;;;4.30;2.63;;;;;;;;;;4838487;29;20033;-65
2021/04/22 11:20:12;;;;;;;3.85;2.75;;;;;;;;;;4835369;29;20048;-67
2021/04/22 11:22:38;;;;;;;8.65;2.40;;;;;;;;;;4934417;24;20615;-60
2021/04/22 11:25:05;;;;;;;4.72;2.60;;;;;;;;;;4859836;29;20041;-60
2021/04/22 11:27:33;;;;;;;7.43;3.80;;;;;;;;;;4857976;29;20034;-60
2021/04/22 11:30:02;;;;;;;8.73;5.57;;;;;;;;;;4867306;29;20034;-60
2021/04/22 11:32:28;;;;;;;6.45;3.85;;;;;;;;;;4840625;29;20018;-65
2021/04/22 11:35:07;;;;;;;6.45;3.53;;;;;;;;;;4852769;29;20034;-61
2021/04/22 11:37:39;;;;;;;7.13;3.17;;;;;;;;;;4878264;29;20109;-68
2021/04/22 11:40:24;;;;;;;7.75;4.50;;;;;;;;;;4871998;29;20036;-66
2021/04/22 11:42:54;;;;;;;4.57;2.88;;;;;;;;;;4868932;29;20018;-72
2021/04/22 11:45:25;;;;;;;5.57;2.60;;;;;;;;;;4842222;24;20043;-62
2021/04/22 11:47:52;;;;;;;13.63;8.95;;;;;;;;;;4861878;29;20046;-72
2021/04/22 11:50:21;;;;;;;29.25;15.13;;;;;;;;;;4857287;29;20025;-64
2021/04/22 11:52:52;;;;;;;14.38;7.00;;;;;;;;;;4869695;29;20024;-64
2021/04/22 11:55:21;;;;;;;19.42;10.75;;;;;;;;;;4868750;29;20468;-65
2021/04/22 11:57:56;;;;;;;5.25;2.83;;;;;;;;;;4868729;29;20046;-63
2021/04/22 12:00:27;;;;;;;3.63;2.42;;;;;;;;;;4868162;29;20014;-63
2021/04/22 12:02:54;;;;;;;4.80;2.78;;;;;;;;;;4869408;29;20022;-62
2021/04/22 12:05:20;;;;;;;5.10;2.72;;;;;;;;;;4868548;29;20014;-62
2021/04/22 12:08:04;;;;;;;3.72;2.30;;;;;;;;;;4852136;29;20026;-61
2021/04/22 12:10:31;;;;;;;4.78;2.58;;;;;;;;;;4869225;29;20029;-62
2021/04/22 12:13:10;;;;;;;6.60;3.05;;;;;;;;;;4868749;29;20017;-62
2021/04/22 12:15:38;;;;;;;5.40;2.40;;;;;;;;;;4835736;29;20042;-66
2021/04/22 12:18:04;;;;;;;6.45;2.50;;;;;;;;;;4851406;29;20037;-62
2021/04/22 12:20:30;;;;;;;3.97;2.55;;;;;;;;;;4853042;29;20051;-65
2021/04/22 12:22:57;;;;;;;7.65;2.70;;;;;;;;;;4867723;29;20028;-66
2021/04/22 12:25:24;;;;;;;8.00;3.75;;;;;;;;;;4865902;29;20042;-65
2021/04/22 12:28:01;;;;;;;8.60;2.70;;;;;;;;;;4864497;29;20037;-63
2021/04/22 12:30:35;;;;;;;5.93;2.63;;;;;;;;;;4875146;29;20014;-63
2021/04/22 12:33:05;;;;;;;6.25;3.15;;;;;;;;;;4865113;29;20064;-62
2021/04/22 12:35:32;;;;;;;7.20;3.33;;;;;;;;;;4861181;29;20036;-67
2021/04/22 12:38:00;;;;;;;6.70;3.50;;;;;;;;;;4858127;29;20046;-70
2021/04/22 12:40:28;;;;;;;6.55;2.90;;;;;;;;;;4861388;29;20034;-66
2021/04/22 12:43:01;;;;;;;10.98;3.60;;;;;;;;;;4866496;29;20117;-65
2021/04/22 12:45:27;;;;;;;4.80;3.22;;;;;;;;;;4834352;29;20023;-70
2021/04/22 12:47:55;;;;;;;6.57;3.40;;;;;;;;;;4839267;29;20038;-61
2021/04/22 12:50:24;;;;;;;6.78;3.50;;;;;;;;;;4846298;29;20031;-61
2021/04/22 12:52:50;;;;;;;5.78;3.38;;;;;;;;;;4843873;29;20026;-61
2021/04/22 12:55:19;;;;;;;6.47;4.70;;;;;;;;;;4836887;29;20034;-61
2021/04/22 12:57:52;;;;;;;6.82;4.50;;;;;;;;;;4845355;29;20034;-61
2021/04/22 13:00:27;;;;;;;5.20;2.67;;;;;;;;;;4844059;29;20027;-61
2021/04/22 13:02:55;;;;;;;6.40;2.85;;;;;;;;;;4845434;29;20035;-61
2021/04/22 13:05:21;;;;;;;3.33;2.60;;;;;;;;;;4845080;29;20049;-61
2021/04/22 13:07:47;;;;;;;3.80;2.20;;;;;;;;;;4845551;29;20023;-61
2021/04/22 13:10:18;;;;;;;8.20;3.97;;;;;;;;;;4843363;29;20026;-61
2021/04/22 13:12:45;;;;;;;7.05;4.22;;;;;;;;;;4849035;29;20038;-61
2021/04/22 13:15:15;;;;;;;9.43;5.90;;;;;;;;;;4827746;29;20394;-61
2021/04/22 13:17:42;;;;;;;12.30;7.00;;;;;;;;;;4846098;29;20054;-61
2021/04/22 13:20:18;;;;;;;9.52;3.03;;;;;;;;;;4849598;29;20021;-61
2021/04/22 13:22:48;;;;;;;4.93;2.90;;;;;;;;;;4832451;29;20026;-61
2021/04/22 13:25:15;;;;;;;4.25;2.70;;;;;;;;;;4834236;29;20018;-60
2021/04/22 13:27:41;;;;;;;6.65;2.63;;;;;;;;;;4834255;29;20047;-61
2021/04/22 13:30:07;;;;;;;6.80;4.05;;;;;;;;;;4847764;29;20038;-61
2021/04/22 13:32:35;;;;;;;5.78;3.45;;;;;;;;;;4847721;29;20056;-61
2021/04/22 13:35:01;;;;;;;4.07;2.80;;;;;;;;;;4858944;29;20018;-61
2021/04/22 13:37:28;;;;;;;3.63;2.70;;;;;;;;;;4857808;29;20015;-63
2021/04/22 13:39:55;;;;;;;3.65;2.60;;;;;;;;;;4832718;29;20027;-61
2021/04/22 13:42:26;;;;;;;8.50;2.50;;;;;;;;;;4829976;29;20110;-61
2021/04/22 13:44:53;;;;;;;4.22;2.70;;;;;;;;;;4846657;29;20018;-61
2021/04/22 13:47:20;;;;;;;4.28;2.53;;;;;;;;;;4847239;29;20067;-60
2021/04/22 13:49:47;;;;;;;4.00;2.42;;;;;;;;;;4849003;29;20030;-61
2021/04/22 13:52:15;;;;;;;4.45;2.47;;;;;;;;;;4845002;29;20038;-61
2021/04/22 13:54:47;;;;;;;3.95;2.50;;;;;;;;;;4830689;29;20034;-60
2021/04/22 13:57:24;;;;;;;3.33;2.42;;;;;;;;;;4826222;29;20428;-60
2021/04/22 13:59:59;;;;;;;2.40;2.17;;;;;;;;;;4838070;29;20038;-60